Time;durP1;ratioP1;P1;durP2;ratioP2;P2;SDS_P1;SDS_P2;PMS_P1;PMS_P2;Temp;Humidity;BMP_temperature;BMP_pressure;BME280_temperature;BME280_humidity;BME280_pressure;Samples;Min_cycle;Max_cycle;Signal;HPM_P1;HPM_P2
2024/03/26 00:02:09;;;;;;;4.75;2.10;;;;;8.10;96665.00;;;;7397806;19;20531;-69
2024/03/26 00:04:37;;;;;;;5.25;2.03;;;;;8.10;96662.00;;;;7394932;19;20034;-69
2024/03/26 00:07:03;;;;;;;2.35;1.83;;;;;8.00;96653.00;;;;7393645;19;20022;-69
2024/03/26 00:09:28;;;;;;;4.38;2.22;;;;;8.10;96660.00;;;;7394649;19;20109;-68
2024/03/26 00:11:55;;;;;;;2.38;1.95;;;;;8.00;96650.00;;;;7394680;19;20010;-68
2024/03/26 00:14:21;;;;;;;2.55;2.03;;;;;8.10;96648.00;;;;7394358;19;20015;-70
2024/03/26 00:16:47;;;;;;;2.40;2.15;;;;;8.20;96649.00;;;;7390923;19;20014;-68
2024/03/26 00:19:12;;;;;;;5.97;1.98;;;;;8.20;96647.00;;;;7394502;19;20007;-68
2024/03/26 00:21:38;;;;;;;2.45;1.75;;;;;8.10;96651.00;;;;7393687;19;20361;-69
2024/03/26 00:24:04;;;;;;;4.70;1.90;;;;;8.10;96644.00;;;;7394153;19;20078;-69
2024/03/26 00:26:31;;;;;;;3.10;2.30;;;;;8.10;96641.00;;;;7393097;19;20015;-69
2024/03/26 00:28:57;;;;;;;4.25;2.00;;;;;8.10;96647.00;;;;7393855;19;20014;-68
2024/03/26 00:31:23;;;;;;;7.15;2.78;;;;;8.10;96647.00;;;;7396569;19;20006;-68
2024/03/26 00:33:49;;;;;;;4.60;1.88;;;;;8.10;96653.00;;;;7397460;19;20011;-69
2024/03/26 00:36:15;;;;;;;4.93;2.08;;;;;8.10;96640.00;;;;7392746;19;20026;-70
2024/03/26 00:38:40;;;;;;;4.18;2.35;;;;;8.10;96640.00;;;;7395609;19;20006;-69
2024/03/26 00:41:06;;;;;;;4.30;2.10;;;;;8.20;96639.00;;;;7394198;19;20015;-70
2024/03/26 00:43:31;;;;;;;3.00;1.90;;;;;8.20;96641.00;;;;7395131;19;20534;-69
2024/03/26 00:45:57;;;;;;;5.13;2.25;;;;;8.20;96634.00;;;;7394907;19;20361;-69
2024/03/26 00:48:23;;;;;;;6.28;2.85;;;;;8.30;96628.00;;;;7396023;19;20006;-69
2024/03/26 00:50:48;;;;;;;2.90;1.85;;;;;8.30;96626.00;;;;7395823;19;20006;-69
2024/03/26 00:53:14;;;;;;;4.43;2.25;;;;;8.30;96629.00;;;;7398257;19;20328;-68
2024/03/26 00:55:40;;;;;;;5.65;2.28;;;;;8.30;96622.00;;;;7410084;19;20011;-68
2024/03/26 00:58:06;;;;;;;7.50;2.05;;;;;8.30;96606.00;;;;7407037;19;20029;-68
2024/03/26 01:00:31;;;;;;;2.83;1.90;;;;;8.30;96619.00;;;;7404355;19;20526;-68
2024/03/26 01:02:57;;;;;;;2.60;2.00;;;;;8.30;96614.00;;;;7409474;19;20007;-68
2024/03/26 01:05:23;;;;;;;2.72;2.17;;;;;8.40;96617.00;;;;7406345;19;20030;-69
2024/03/26 01:07:48;;;;;;;2.58;2.20;;;;;8.50;96620.00;;;;7394067;19;20078;-69
2024/03/26 01:10:14;;;;;;;5.75;1.90;;;;;8.40;96611.00;;;;7396764;19;20011;-69
2024/03/26 01:12:40;;;;;;;5.78;2.85;;;;;8.40;96616.00;;;;7397015;19;20003;-68
2024/03/26 01:15:06;;;;;;;4.35;2.20;;;;;8.40;96616.00;;;;7394777;19;20373;-68
2024/03/26 01:17:32;;;;;;;3.22;2.10;;;;;8.20;96619.00;;;;7390093;19;20022;-69
2024/03/26 01:19:57;;;;;;;2.60;1.98;;;;;8.20;96614.00;;;;7392175;19;20355;-68
2024/03/26 01:22:24;;;;;;;5.78;2.63;;;;;8.10;96608.00;;;;7390762;19;20029;-68
2024/03/26 01:24:49;;;;;;;2.78;1.90;;;;;8.10;96608.00;;;;7391588;19;20010;-69
2024/03/26 01:27:15;;;;;;;3.72;2.20;;;;;8.10;96608.00;;;;7390496;19;20363;-68
2024/03/26 01:29:41;;;;;;;5.25;2.35;;;;;8.20;96603.00;;;;7391231;19;20095;-68
2024/03/26 01:32:07;;;;;;;3.60;1.98;;;;;8.20;96608.00;;;;7395004;19;20011;-68
2024/03/26 01:34:32;;;;;;;4.22;2.22;;;;;8.20;96595.00;;;;7391773;19;20456;-69
2024/03/26 01:36:58;;;;;;;4.50;2.25;;;;;8.20;96602.00;;;;7390055;19;20026;-69
2024/03/26 01:39:23;;;;;;;2.95;2.15;;;;;8.10;96592.00;;;;7391574;19;20010;-68
2024/03/26 01:41:49;;;;;;;3.13;2.00;;;;;8.10;96587.00;;;;7391551;19;20400;-68
2024/03/26 01:44:15;;;;;;;4.60;2.35;;;;;8.00;96586.00;;;;7391868;19;20006;-68
2024/03/26 01:46:41;;;;;;;4.45;2.40;;;;;8.00;96579.00;;;;7390123;19;20464;-69
2024/03/26 01:49:09;;;;;;;2.00;1.75;;;;;8.00;96586.00;;;;7391279;19;20015;-70
2024/03/26 01:51:37;;;;;;;5.53;2.20;;;;;7.90;96571.00;;;;7390690;19;20010;-69
2024/03/26 01:54:04;;;;;;;3.47;1.90;;;;;8.00;96577.00;;;;7390748;19;20046;-69
2024/03/26 01:56:31;;;;;;;4.93;2.40;;;;;8.00;96582.00;;;;7390233;19;20025;-68
2024/03/26 01:58:57;;;;;;;4.13;2.25;;;;;8.10;96583.00;;;;7390605;19;20030;-69
2024/03/26 02:01:26;;;;;;;3.90;2.08;;;;;8.20;96580.00;;;;7393980;19;20018;-68
2024/03/26 02:03:53;;;;;;;4.40;2.63;;;;;8.10;96573.00;;;;7394681;19;20502;-68
2024/03/26 02:06:19;;;;;;;4.85;2.60;;;;;8.10;96579.00;;;;7390042;19;20015;-69
2024/03/26 02:08:45;;;;;;;4.90;2.45;;;;;8.20;96575.00;;;;7390329;19;20014;-69
2024/03/26 02:11:11;;;;;;;7.20;2.67;;;;;8.20;96576.00;;;;7390135;19;20036;-69
2024/03/26 02:13:37;;;;;;;3.10;2.45;;;;;8.20;96572.00;;;;7390284;19;20014;-69
2024/03/26 02:16:03;;;;;;;5.13;2.65;;;;;8.20;96566.00;;;;7389808;19;20025;-69
2024/03/26 02:18:29;;;;;;;4.45;3.25;;;;;8.30;96559.00;;;;7390382;19;20029;-70
2024/03/26 02:20:54;;;;;;;4.03;2.40;;;;;8.20;96566.00;;;;7390006;19;20019;-68
2024/03/26 02:23:21;;;;;;;4.20;2.95;;;;;8.20;96561.00;;;;7390114;19;20002;-69
2024/03/26 02:25:47;;;;;;;5.32;2.50;;;;;8.10;96556.00;;;;7390003;19;20021;-69
2024/03/26 02:28:13;;;;;;;3.38;2.42;;;;;8.10;96557.00;;;;7390007;19;20015;-68
2024/03/26 02:30:38;;;;;;;5.82;3.13;;;;;8.10;96550.00;;;;7391430;19;20014;-69
2024/03/26 02:33:04;;;;;;;5.50;2.92;;;;;8.10;96543.00;;;;7394192;19;20022;-68
2024/03/26 02:35:30;;;;;;;3.97;2.40;;;;;7.90;96536.00;;;;7390300;19;20006;-69
2024/03/26 02:37:56;;;;;;;4.82;2.50;;;;;7.90;96541.00;;;;7388624;19;20034;-69
2024/03/26 02:40:21;;;;;;;3.40;2.40;;;;;7.90;96542.00;;;;7395082;19;20022;-68
2024/03/26 02:42:47;;;;;;;4.07;2.90;;;;;7.90;96525.00;;;;7398363;19;20334;-69
2024/03/26 02:45:14;;;;;;;4.05;2.22;;;;;7.80;96530.00;;;;7397530;19;20014;-70
2024/03/26 02:47:39;;;;;;;6.97;2.50;;;;;7.70;96532.00;;;;7394974;19;20014;-69
2024/03/26 02:50:06;;;;;;;5.57;3.22;;;;;7.70;96520.00;;;;7397254;19;20669;-70
2024/03/26 02:52:31;;;;;;;3.92;2.45;;;;;7.60;96526.00;;;;7396524;19;20014;-70
2024/03/26 02:54:57;;;;;;;6.63;3.10;;;;;7.50;96538.00;;;;7397164;19;20007;-70
2024/03/26 02:57:23;;;;;;;4.43;2.20;;;;;7.60;96539.00;;;;7394877;19;20081;-70
2024/03/26 02:59:48;;;;;;;4.00;2.72;;;;;7.60;96531.00;;;;7397227;19;20098;-69
2024/03/26 03:02:14;;;;;;;4.07;2.55;;;;;7.60;96524.00;;;;7399821;19;20018;-70
2024/03/26 03:04:40;;;;;;;5.28;2.65;;;;;7.50;96519.00;;;;7396507;19;20106;-70
2024/03/26 03:07:06;;;;;;;4.47;2.33;;;;;7.50;96518.00;;;;7394920;19;20740;-69
2024/03/26 03:09:31;;;;;;;5.88;2.90;;;;;7.50;96528.00;;;;7396018;19;20031;-69
2024/03/26 03:11:57;;;;;;;4.28;3.00;;;;;7.50;96518.00;;;;7395704;19;20006;-70
2024/03/26 03:14:22;;;;;;;6.68;2.65;;;;;7.50;96520.00;;;;7396076;19;20333;-69
2024/03/26 03:16:48;;;;;;;3.65;2.65;;;;;7.50;96520.00;;;;7394353;19;20015;-68
2024/03/26 03:19:14;;;;;;;4.15;2.75;;;;;7.50;96518.00;;;;7396886;19;20010;-68
2024/03/26 03:21:39;;;;;;;6.80;3.53;;;;;7.60;96523.00;;;;7396722;19;20032;-69
2024/03/26 03:24:05;;;;;;;5.40;2.88;;;;;7.60;96514.00;;;;7398090;19;20014;-69
2024/03/26 03:26:31;;;;;;;6.57;3.03;;;;;7.60;96511.00;;;;7395342;19;20089;-70
2024/03/26 03:28:57;;;;;;;3.85;2.75;;;;;7.50;96505.00;;;;7395695;19;20512;-70
2024/03/26 03:31:22;;;;;;;4.97;2.35;;;;;7.50;96505.00;;;;7398212;19;20006;-69
2024/03/26 03:33:48;;;;;;;5.50;3.00;;;;;7.50;96499.00;;;;7399168;19;20010;-69
2024/03/26 03:36:14;;;;;;;4.82;2.88;;;;;7.40;96503.00;;;;7394299;19;20032;-69
2024/03/26 03:38:39;;;;;;;5.55;2.70;;;;;7.30;96493.00;;;;7395100;19;20019;-69
2024/03/26 03:41:05;;;;;;;5.47;3.63;;;;;7.30;96500.00;;;;7394378;19;20026;-68
2024/03/26 03:43:30;;;;;;;3.80;2.15;;;;;7.20;96497.00;;;;7394953;19;20039;-70
2024/03/26 03:45:56;;;;;;;8.07;2.78;;;;;7.10;96485.00;;;;7394269;19;20332;-69
2024/03/26 03:48:22;;;;;;;3.58;2.58;;;;;7.00;96480.00;;;;7395133;19;20432;-70
2024/03/26 03:50:48;;;;;;;3.00;2.38;;;;;7.10;96480.00;;;;7392333;19;20011;-69
2024/03/26 03:53:14;;;;;;;5.22;2.30;;;;;7.10;96486.00;;;;7394657;19;20026;-68
2024/03/26 03:55:39;;;;;;;6.63;3.00;;;;;7.00;96479.00;;;;7394060;19;20417;-69
2024/03/26 03:58:05;;;;;;;6.47;2.40;;;;;7.00;96489.00;;;;7392180;19;20352;-68
2024/03/26 04:00:31;;;;;;;5.80;2.30;;;;;7.20;96493.00;;;;7396232;19;20351;-67
2024/03/26 04:02:56;;;;;;;5.95;3.40;;;;;7.40;96491.00;;;;7398103;19;20413;-67
2024/03/26 04:05:22;;;;;;;4.78;3.25;;;;;7.40;96487.00;;;;7394505;19;20082;-67
2024/03/26 04:07:47;;;;;;;6.22;3.55;;;;;7.50;96488.00;;;;7391982;19;20030;-66
2024/03/26 04:10:13;;;;;;;5.18;3.40;;;;;7.60;96487.00;;;;7393664;19;20006;-67
2024/03/26 04:12:39;;;;;;;7.40;3.50;;;;;7.60;96495.00;;;;7393866;19;20021;-67
2024/03/26 04:15:06;;;;;;;5.43;2.80;;;;;7.70;96492.00;;;;7394270;19;20010;-68
2024/03/26 04:17:31;;;;;;;4.22;2.30;;;;;7.70;96493.00;;;;7391789;19;20468;-68
2024/03/26 04:19:57;;;;;;;7.90;5.15;;;;;7.70;96502.00;;;;7393734;19;20029;-68
2024/03/26 04:22:23;;;;;;;7.00;2.90;;;;;7.70;96495.00;;;;7392620;19;20015;-67
2024/03/26 04:24:48;;;;;;;6.05;2.78;;;;;7.60;96495.00;;;;7393159;19;20014;-68
2024/03/26 04:27:14;;;;;;;5.25;3.17;;;;;7.50;96488.00;;;;7392174;19;20002;-69
2024/03/26 04:29:39;;;;;;;3.65;2.40;;;;;7.40;96489.00;;;;7394306;19;20006;-68
2024/03/26 04:32:06;;;;;;;3.78;2.45;;;;;7.40;96487.00;;;;7394841;19;20014;-69
2024/03/26 04:34:31;;;;;;;4.25;2.50;;;;;7.50;96480.00;;;;7393340;19;20015;-67
2024/03/26 04:37:02;;;;;;;5.13;2.33;;;;;7.50;96493.00;;;;7391760;19;20018;-67
2024/03/26 04:39:28;;;;;;;3.67;2.40;;;;;7.50;96479.00;;;;7393151;19;20010;-67
2024/03/26 04:41:54;;;;;;;4.65;2.45;;;;;7.50;96495.00;;;;7393631;19;20356;-68
2024/03/26 04:44:20;;;;;;;6.22;2.50;;;;;7.60;96488.00;;;;7393132;19;20022;-67
2024/03/26 04:46:46;;;;;;;4.60;2.35;;;;;7.50;96487.00;;;;7391642;19;20033;-68
2024/03/26 04:49:12;;;;;;;5.28;2.95;;;;;7.50;96496.00;;;;7392832;19;20479;-68
2024/03/26 04:51:38;;;;;;;3.78;2.55;;;;;7.50;96489.00;;;;7392100;19;20018;-68
2024/03/26 04:54:04;;;;;;;4.68;2.42;;;;;7.40;96491.00;;;;7392483;19;20043;-69
2024/03/26 04:56:30;;;;;;;6.40;2.70;;;;;7.40;96485.00;;;;7391182;19;20370;-70
2024/03/26 04:58:56;;;;;;;4.57;2.80;;;;;7.40;96484.00;;;;7392496;19;20025;-70
2024/03/26 05:01:21;;;;;;;3.83;2.30;;;;;7.40;96488.00;;;;7394866;19;20027;-70
2024/03/26 05:03:47;;;;;;;11.15;5.43;;;;;7.50;96485.00;;;;7395701;19;20022;-68
2024/03/26 05:06:12;;;;;;;3.63;2.30;;;;;7.50;96490.00;;;;7391873;19;20363;-68
2024/03/26 05:08:38;;;;;;;6.45;2.83;;;;;7.60;96491.00;;;;7393609;19;20027;-69
2024/03/26 05:11:04;;;;;;;4.95;2.55;;;;;7.50;96475.00;;;;7392146;19;20010;-69
2024/03/26 05:13:30;;;;;;;5.93;2.80;;;;;7.50;96472.00;;;;7392333;19;20029;-68
2024/03/26 05:15:57;;;;;;;3.60;2.60;;;;;7.50;96473.00;;;;7393883;19;20010;-68
2024/03/26 05:18:23;;;;;;;4.07;2.45;;;;;7.50;96475.00;;;;7392550;19;20026;-69
2024/03/26 05:20:48;;;;;;;4.38;2.55;;;;;7.50;96464.00;;;;7391559;19;20010;-69
2024/03/26 05:23:14;;;;;;;4.22;2.25;;;;;7.40;96455.00;;;;7392002;19;20039;-69
2024/03/26 05:25:40;;;;;;;5.28;2.10;;;;;7.30;96465.00;;;;7392363;19;20044;-69
2024/03/26 05:28:06;;;;;;;6.05;3.10;;;;;7.40;96463.00;;;;7392990;19;20090;-69
2024/03/26 05:30:31;;;;;;;5.10;2.63;;;;;7.40;96458.00;;;;7401706;19;20871;-68
2024/03/26 05:32:57;;;;;;;4.03;2.40;;;;;7.50;96457.00;;;;7405836;19;20039;-68
2024/03/26 05:35:23;;;;;;;6.15;2.90;;;;;7.50;96454.00;;;;7402640;19;20011;-68
2024/03/26 05:37:49;;;;;;;4.22;2.03;;;;;7.50;96454.00;;;;7403309;19;20030;-68
2024/03/26 05:40:15;;;;;;;4.00;2.40;;;;;7.50;96458.00;;;;7400983;19;20010;-68
2024/03/26 05:42:41;;;;;;;6.15;2.80;;;;;7.50;96445.00;;;;7402410;19;20010;-68
2024/03/26 05:45:07;;;;;;;7.45;3.25;;;;;7.60;96451.00;;;;7402448;19;20035;-68
2024/03/26 05:47:33;;;;;;;5.85;3.22;;;;;7.60;96445.00;;;;7400037;19;20014;-68
2024/03/26 05:49:59;;;;;;;10.98;3.78;;;;;7.60;96439.00;;;;7396205;19;20433;-68
2024/03/26 05:52:25;;;;;;;3.75;2.60;;;;;7.60;96439.00;;;;7393135;19;20017;-67
2024/03/26 05:54:51;;;;;;;5.53;2.47;;;;;7.60;96438.00;;;;7398021;19;20014;-67
2024/03/26 05:57:16;;;;;;;21.98;12.27;;;;;7.50;96438.00;;;;7395505;19;20007;-68
2024/03/26 05:59:42;;;;;;;8.55;3.03;;;;;7.50;96433.00;;;;7392893;19;20028;-69
2024/03/26 06:02:08;;;;;;;4.93;2.55;;;;;7.50;96436.00;;;;7394449;19;20022;-69
2024/03/26 06:04:36;;;;;;;3.53;2.70;;;;;7.50;96447.00;;;;7391272;19;20022;-69
2024/03/26 06:07:02;;;;;;;5.70;2.83;;;;;7.60;96436.00;;;;7389285;19;20006;-69
2024/03/26 06:09:28;;;;;;;6.43;2.80;;;;;7.60;96417.00;;;;7390352;19;20034;-69
2024/03/26 06:11:53;;;;;;;5.35;2.50;;;;;7.60;96421.00;;;;7390383;19;20022;-70
2024/03/26 06:14:19;;;;;;;5.97;3.30;;;;;7.70;96393.00;;;;7392380;19;20022;-68
2024/03/26 06:16:45;;;;;;;5.07;2.40;;;;;7.70;96420.00;;;;7395686;19;20518;-68
2024/03/26 06:19:10;;;;;;;6.50;2.95;;;;;7.80;96430.00;;;;7397513;19;20019;-69
2024/03/26 06:21:36;;;;;;;3.90;2.35;;;;;7.90;96436.00;;;;7396994;19;20036;-68
2024/03/26 06:24:02;;;;;;;4.95;2.50;;;;;8.00;96441.00;;;;7397538;19;20010;-68
2024/03/26 06:26:27;;;;;;;3.70;2.58;;;;;8.00;96466.00;;;;7396355;19;20375;-69
2024/03/26 06:28:55;;;;;;;5.25;2.17;;;;;8.00;96441.00;;;;7398145;19;20021;-68
2024/03/26 06:31:21;;;;;;;3.47;2.40;;;;;8.00;96438.00;;;;7399694;19;20376;-69
2024/03/26 06:33:47;;;;;;;4.78;2.90;;;;;8.10;96437.00;;;;7400607;19;20010;-68
2024/03/26 06:36:12;;;;;;;4.57;2.72;;;;;8.10;96438.00;;;;7396296;19;20026;-68
2024/03/26 06:38:38;;;;;;;4.90;2.78;;;;;8.10;96442.00;;;;7397580;19;20035;-68
2024/03/26 06:41:04;;;;;;;3.20;2.58;;;;;8.20;96444.00;;;;7396679;19;20006;-68
2024/03/26 06:43:30;;;;;;;3.70;2.30;;;;;8.10;96438.00;;;;7397253;19;20527;-68
2024/03/26 06:45:55;;;;;;;7.22;2.85;;;;;8.10;96433.00;;;;7396454;19;20018;-69
2024/03/26 06:48:21;;;;;;;4.18;2.65;;;;;8.20;96444.00;;;;7396477;19;20108;-68
2024/03/26 06:50:47;;;;;;;4.75;2.85;;;;;8.30;96441.00;;;;7396320;19;20022;-68
2024/03/26 06:53:13;;;;;;;4.80;2.70;;;;;8.30;96446.00;;;;7396849;19;20022;-68
2024/03/26 06:55:38;;;;;;;2.92;2.53;;;;;8.40;96436.00;;;;7396089;19;20003;-69
2024/03/26 06:58:04;;;;;;;2.85;2.35;;;;;8.40;96426.00;;;;7394205;19;20014;-69
2024/03/26 07:00:30;;;;;;;4.65;2.60;;;;;8.40;96435.00;;;;7397493;19;20014;-68
2024/03/26 07:02:57;;;;;;;3.20;2.58;;;;;8.50;96434.00;;;;7400579;19;20015;-68
2024/03/26 07:05:23;;;;;;;8.07;2.33;;;;;8.40;96411.00;;;;7396412;19;20015;-69
2024/03/26 07:07:49;;;;;;;3.33;2.47;;;;;8.40;96405.00;;;;7393957;19;20015;-68
2024/03/26 07:10:15;;;;;;;2.85;2.30;;;;;8.40;96407.00;;;;7395951;19;20498;-69
2024/03/26 07:12:40;;;;;;;3.85;2.15;;;;;8.50;96399.00;;;;7396392;19;20412;-68
2024/03/26 07:15:06;;;;;;;2.40;2.20;;;;;8.50;96399.00;;;;7395972;19;20014;-68
2024/03/26 07:17:32;;;;;;;2.90;2.13;;;;;8.50;96391.00;;;;7393979;19;20010;-66
2024/03/26 07:19:58;;;;;;;4.45;2.20;;;;;8.60;96389.00;;;;7395954;19;20369;-68
2024/03/26 07:22:24;;;;;;;6.60;2.20;;;;;8.70;96402.00;;;;7395961;19;20030;-67
2024/03/26 07:24:50;;;;;;;3.60;2.15;;;;;8.70;96399.00;;;;7395970;19;20007;-68
2024/03/26 07:27:16;;;;;;;3.63;2.40;;;;;8.90;96393.00;;;;7394576;19;20014;-67
2024/03/26 07:29:42;;;;;;;4.13;2.40;;;;;9.10;96397.00;;;;7395940;19;20473;-67
2024/03/26 07:32:08;;;;;;;3.65;2.10;;;;;9.20;96393.00;;;;7398577;19;20009;-67
2024/03/26 07:34:34;;;;;;;3.80;2.00;;;;;9.30;96392.00;;;;7394978;19;20364;-67
2024/03/26 07:37:01;;;;;;;6.30;2.80;;;;;9.40;96393.00;;;;7394049;19;20029;-68
2024/03/26 07:39:26;;;;;;;4.43;2.60;;;;;9.40;96381.00;;;;7395133;19;20030;-66
2024/03/26 07:41:52;;;;;;;4.75;2.80;;;;;9.40;96393.00;;;;7394302;19;20014;-68
2024/03/26 07:44:18;;;;;;;6.28;2.90;;;;;9.50;96393.00;;;;7394941;19;20006;-68
2024/03/26 07:46:44;;;;;;;3.97;2.55;;;;;9.60;96393.00;;;;7393109;19;20011;-67
2024/03/26 07:49:10;;;;;;;6.38;4.35;;;;;9.70;96399.00;;;;7394846;19;20011;-67
2024/03/26 07:51:37;;;;;;;3.58;2.13;;;;;9.70;96403.00;;;;7394215;19;20019;-67
2024/03/26 07:54:04;;;;;;;4.57;2.00;;;;;9.70;96404.00;;;;7394236;19;20353;-67
2024/03/26 07:56:29;;;;;;;3.17;2.00;;;;;9.70;96409.00;;;;7393638;19;20479;-68
2024/03/26 07:58:55;;;;;;;3.92;2.60;;;;;9.80;96409.00;;;;7394539;19;20040;-67
2024/03/26 08:01:21;;;;;;;4.25;1.83;;;;;10.00;96397.00;;;;7396653;19;20356;-67
2024/03/26 08:03:46;;;;;;;3.30;2.10;;;;;9.90;96394.00;;;;7398066;19;20011;-67
2024/03/26 08:06:12;;;;;;;4.82;2.60;;;;;9.90;96388.00;;;;7393720;19;20031;-67
2024/03/26 08:08:38;;;;;;;6.95;2.72;;;;;9.90;96386.00;;;;7393935;19;20082;-66
2024/03/26 08:11:03;;;;;;;5.78;2.58;;;;;10.00;96399.00;;;;7393768;19;20018;-67
2024/03/26 08:13:29;;;;;;;2.47;2.20;;;;;10.10;96396.00;;;;7393949;19;20014;-67
2024/03/26 08:15:55;;;;;;;3.20;2.13;;;;;10.10;96390.00;;;;7393173;19;20010;-67
2024/03/26 08:18:21;;;;;;;4.18;1.92;;;;;10.20;96400.00;;;;7393912;19;20014;-67
2024/03/26 08:20:46;;;;;;;4.22;2.25;;;;;10.20;96401.00;;;;7393429;19;20014;-68
2024/03/26 08:23:12;;;;;;;3.13;1.95;;;;;10.30;96401.00;;;;7393577;19;20010;-67
2024/03/26 08:25:38;;;;;;;7.05;2.38;;;;;10.30;96393.00;;;;7393713;19;20346;-67
2024/03/26 08:28:04;;;;;;;3.22;2.30;;;;;10.20;96390.00;;;;7391722;19;20028;-67
2024/03/26 08:30:29;;;;;;;3.72;2.38;;;;;10.20;96389.00;;;;7394555;19;20017;-67
2024/03/26 08:32:55;;;;;;;4.47;2.78;;;;;10.30;96388.00;;;;7397807;19;20006;-67
2024/03/26 08:35:21;;;;;;;3.10;2.20;;;;;10.30;96381.00;;;;7393271;19;20024;-66
2024/03/26 08:37:47;;;;;;;3.03;2.05;;;;;10.40;96374.00;;;;7389015;19;20356;-68
2024/03/26 08:40:15;;;;;;;3.08;2.13;;;;;10.40;96376.00;;;;7393027;19;20010;-65
2024/03/26 08:42:41;;;;;;;2.67;1.90;;;;;10.60;96376.00;;;;7393180;19;20046;-64
2024/03/26 08:45:08;;;;;;;3.65;2.20;;;;;10.70;96389.00;;;;7392738;19;20015;-65
2024/03/26 08:47:34;;;;;;;4.75;2.38;;;;;10.70;96390.00;;;;7391617;19;20381;-65
2024/03/26 08:50:01;;;;;;;3.30;2.17;;;;;10.80;96382.00;;;;7393046;19;20039;-66
2024/03/26 08:52:27;;;;;;;3.95;2.33;;;;;10.90;96382.00;;;;7392054;19;20014;-65
2024/03/26 08:54:53;;;;;;;3.25;2.33;;;;;11.00;96381.00;;;;7393013;19;20508;-66
2024/03/26 08:57:18;;;;;;;4.78;2.13;;;;;11.00;96382.00;;;;7391297;19;20576;-66
2024/03/26 08:59:44;;;;;;;2.70;2.03;;;;;11.10;96391.00;;;;7392707;19;20019;-65
2024/03/26 09:02:10;;;;;;;7.97;2.35;;;;;11.20;96387.00;;;;7396370;19;20010;-67
2024/03/26 09:04:36;;;;;;;2.78;2.03;;;;;11.20;96386.00;;;;7391993;19;20038;-66
2024/03/26 09:07:02;;;;;;;3.22;2.15;;;;;11.20;96378.00;;;;7391176;19;20085;-67
2024/03/26 09:09:28;;;;;;;5.05;1.75;;;;;11.10;96377.00;;;;7392104;19;20010;-65
2024/03/26 09:11:54;;;;;;;4.75;1.90;;;;;11.00;96375.00;;;;7391643;19;20623;-66
2024/03/26 09:14:19;;;;;;;2.50;2.15;;;;;11.10;96380.00;;;;7391617;19;20015;-66
2024/03/26 09:16:45;;;;;;;5.82;2.92;;;;;11.10;96377.00;;;;7389791;19;20019;-66
2024/03/26 09:19:11;;;;;;;2.80;2.35;;;;;11.20;96362.00;;;;7392678;19;20014;-66
2024/03/26 09:21:37;;;;;;;3.13;1.80;;;;;11.20;96372.00;;;;7391364;19;20006;-66
2024/03/26 09:24:03;;;;;;;4.88;2.10;;;;;11.20;96362.00;;;;7391805;19;20341;-67
2024/03/26 09:26:29;;;;;;;2.80;1.75;;;;;11.30;96365.00;;;;7390992;19;20011;-66
2024/03/26 09:28:56;;;;;;;4.03;1.92;;;;;11.50;96356.00;;;;7391262;19;20030;-66
2024/03/26 09:31:21;;;;;;;2.15;1.50;;;;;11.60;96352.00;;;;7394387;19;20014;-66
2024/03/26 09:33:47;;;;;;;3.00;1.75;;;;;11.60;96356.00;;;;7395611;19;20019;-65
2024/03/26 09:36:13;;;;;;;3.65;1.65;;;;;11.80;96345.00;;;;7391844;19;20014;-65
2024/03/26 09:38:39;;;;;;;2.20;1.70;;;;;12.00;96339.00;;;;7391329;19;20035;-65
2024/03/26 09:41:04;;;;;;;3.15;2.10;;;;;12.20;96335.00;;;;7391306;19;20078;-65
2024/03/26 09:43:31;;;;;;;3.22;1.80;;;;;12.20;96331.00;;;;7391309;19;20445;-65
2024/03/26 09:45:57;;;;;;;3.97;1.77;;;;;12.30;96332.00;;;;7390792;19;20010;-65
2024/03/26 09:48:25;;;;;;;4.47;1.50;;;;;12.20;96338.00;;;;7389462;19;20339;-66
2024/03/26 09:50:51;;;;;;;3.00;1.60;;;;;12.20;96329.00;;;;7389569;19;20018;-65
2024/03/26 09:53:19;;;;;;;3.28;1.77;;;;;12.40;96322.00;;;;7390755;19;20026;-65
2024/03/26 09:55:46;;;;;;;4.10;1.90;;;;;12.60;96325.00;;;;7390800;19;20050;-65
2024/03/26 09:58:11;;;;;;;4.82;1.95;;;;;12.80;96329.00;;;;7391142;19;20026;-65
2024/03/26 10:00:38;;;;;;;2.20;1.80;;;;;13.10;96321.00;;;;7392189;19;20352;-66
2024/03/26 10:03:08;;;;;;;2.38;1.88;;;;;13.20;96312.00;;;;7394835;19;20018;-66
2024/03/26 10:05:34;;;;;;;3.28;1.88;;;;;13.30;96320.00;;;;7391811;19;20081;-67
2024/03/26 10:08:00;;;;;;;2.42;1.58;;;;;13.50;96318.00;;;;7389597;19;20470;-66
2024/03/26 10:10:26;;;;;;;1.70;1.50;;;;;13.70;96314.00;;;;7389818;19;20011;-66
2024/03/26 10:12:51;;;;;;;2.70;1.50;;;;;13.80;96321.00;;;;7390313;19;20014;-66
2024/03/26 10:15:18;;;;;;;2.85;1.60;;;;;14.00;96317.00;;;;7389925;19;20018;-66
2024/03/26 10:17:44;;;;;;;4.57;1.50;;;;;14.20;96306.00;;;;7388516;19;20376;-65
2024/03/26 10:20:13;;;;;;;2.35;1.60;;;;;14.40;96301.00;;;;7392456;19;20010;-67
2024/03/26 10:22:38;;;;;;;2.97;1.85;;;;;14.40;96302.00;;;;7391402;19;20014;-66
2024/03/26 10:25:04;;;;;;;3.00;1.40;;;;;14.40;96310.00;;;;7394298;19;20011;-66
2024/03/26 10:27:30;;;;;;;2.45;1.70;;;;;14.40;96312.00;;;;7394179;19;20035;-65
2024/03/26 10:29:56;;;;;;;2.40;1.50;;;;;14.50;96307.00;;;;7396846;19;20014;-66
2024/03/26 10:32:23;;;;;;;2.78;1.50;;;;;14.50;96307.00;;;;7399503;19;20014;-65
2024/03/26 10:34:56;;;;;;;1.70;1.45;;;;;14.60;96300.00;;;;7395258;19;20034;-66
2024/03/26 10:37:24;;;;;;;2.75;1.35;;;;;14.60;96295.00;;;;7392437;19;20011;-67
2024/03/26 10:39:55;;;;;;;2.67;1.50;;;;;14.80;96288.00;;;;7391521;19;20014;-68
2024/03/26 10:42:25;;;;;;;4.15;1.58;;;;;14.80;96286.00;;;;7389882;19;20475;-67
2024/03/26 10:44:57;;;;;;;2.33;1.25;;;;;15.00;96270.00;;;;7390029;19;20018;-67
2024/03/26 10:47:24;;;;;;;2.25;1.38;;;;;15.20;96279.00;;;;7388267;19;20014;-66
2024/03/26 10:49:51;;;;;;;2.83;1.55;;;;;15.30;96285.00;;;;7390011;19;20559;-66
2024/03/26 10:52:21;;;;;;;2.28;1.60;;;;;15.40;96275.00;;;;7389624;19;20015;-66
2024/03/26 10:54:48;;;;;;;4.20;1.33;;;;;15.30;96275.00;;;;7389746;19;20021;-67
2024/03/26 10:57:15;;;;;;;2.55;1.38;;;;;15.40;96275.00;;;;7390898;19;20006;-67
2024/03/26 10:59:41;;;;;;;2.17;1.30;;;;;15.40;96276.00;;;;7392140;19;20510;-67
2024/03/26 11:02:07;;;;;;;3.15;1.40;;;;;15.40;96274.00;;;;7400524;19;20010;-67
2024/03/26 11:04:33;;;;;;;3.88;1.45;;;;;15.50;96265.00;;;;7398096;19;20018;-67
2024/03/26 11:06:59;;;;;;;3.53;1.23;;;;;15.70;96259.00;;;;7396212;19;20010;-67
2024/03/26 11:09:25;;;;;;;2.97;1.20;;;;;15.80;96260.00;;;;7396922;19;20379;-67
2024/03/26 11:11:51;;;;;;;2.20;1.60;;;;;15.70;96256.00;;;;7396659;19;20019;-67
2024/03/26 11:14:16;;;;;;;2.33;1.70;;;;;15.90;96250.00;;;;7396773;19;20024;-67
2024/03/26 11:16:43;;;;;;;2.78;1.60;;;;;16.10;96250.00;;;;7405528;19;20018;-67
2024/03/26 11:19:25;;;;;;;2.00;1.40;;;;;16.20;96262.00;;;;7418748;19;20007;-67
2024/03/26 11:21:53;;;;;;;2.75;1.73;;;;;16.40;96257.00;;;;7415365;19;20038;-67
2024/03/26 11:24:40;;;;;;;3.58;2.50;;;;;16.60;96255.00;;;;7410103;19;20025;-67
2024/03/26 11:27:06;;;;;;;2.47;1.80;;;;;16.70;96255.00;;;;7403119;19;20018;-66
2024/03/26 11:29:33;;;;;;;5.88;2.70;;;;;16.90;96244.00;;;;7397937;19;20011;-66
2024/03/26 11:31:59;;;;;;;2.38;1.50;;;;;17.10;96233.00;;;;7398657;19;20380;-66
2024/03/26 11:34:26;;;;;;;4.32;1.17;;;;;17.20;96235.00;;;;7397357;19;20010;-66
2024/03/26 11:36:54;;;;;;;2.70;1.10;;;;;17.20;96221.00;;;;7395367;19;20017;-66
2024/03/26 11:39:24;;;;;;;2.90;1.20;;;;;17.30;96207.00;;;;7396624;19;20010;-66
2024/03/26 11:41:50;;;;;;;2.13;1.33;;;;;17.30;96211.00;;;;7395359;19;20013;-66
2024/03/26 11:44:16;;;;;;;3.15;1.27;;;;;17.30;96212.00;;;;7395869;19;20025;-66
2024/03/26 11:46:46;;;;;;;4.00;1.48;;;;;17.30;96197.00;;;;7396298;19;20018;-65
2024/03/26 11:49:12;;;;;;;1.73;1.30;;;;;17.40;96195.00;;;;7397171;19;20018;-66
2024/03/26 11:51:38;;;;;;;3.53;1.35;;;;;17.40;96189.00;;;;7395389;19;20364;-66
2024/03/26 11:54:05;;;;;;;2.80;1.60;;;;;17.60;96184.00;;;;7395588;19;20216;-66
2024/03/26 11:56:32;;;;;;;2.35;1.48;;;;;17.60;96185.00;;;;7394017;19;20475;-66
2024/03/26 11:58:58;;;;;;;3.45;1.40;;;;;17.50;96185.00;;;;7394570;19;20014;-66
2024/03/26 12:01:25;;;;;;;2.55;1.38;;;;;17.40;96187.00;;;;7397759;19;20022;-66
2024/03/26 12:03:51;;;;;;;2.58;1.10;;;;;17.30;96186.00;;;;7394979;19;20014;-66
2024/03/26 12:06:23;;;;;;;6.30;1.25;;;;;17.20;96182.00;;;;7394450;19;20042;-66
2024/03/26 12:08:50;;;;;;;1.50;1.08;;;;;17.10;96184.00;;;;7394423;19;20010;-66
2024/03/26 12:11:16;;;;;;;1.88;1.23;;;;;17.10;96176.00;;;;7392677;19;20018;-67
2024/03/26 12:13:42;;;;;;;3.00;1.05;;;;;17.20;96169.00;;;;7392820;19;20015;-67
2024/03/26 12:16:24;;;;;;;2.28;1.15;;;;;17.40;96163.00;;;;7393289;19;20018;-68
2024/03/26 12:18:56;;;;;;;1.95;1.17;;;;;17.50;96159.00;;;;7393716;19;20018;-67